Hennessey, Oklahoma
Current Conditions -  °F | °C
As of 5:58 AM on Friday 28 Nov 2014 (Local Time) from KEND Reporting Station
Clear Clear  
Wind Chill: 29°   Ceiling: Unl
Heat Index: 37°   Visibility: 10mi
Dew Point: 28°   Wind: 12mph
Humidity: 70%   Direction: 180°S
Pressure: 30.06"   Gusts: NA
Location:  36.11°N, 97.9°W
Report Text: KEND 281158Z AUTO 18010KT 10SM CLR 03/M02 A3006 RMK AO2 SLP187 T00271023 10041 20027 57023 $
Loading
Personal Weather Stations






























Interactive Weather Map New forecast layout! Learn more

10-Day Weather Forecast

Advertisements
Track Severe Weather on mobile